RJKB(METAR)
10/20 17:00
RJKB 200800Z 07017KT 9999 FEW015 SCT020 BKNXXX 26/23 Q1016 RMK
A3000=
戻る
トップページへ戻る
IMOC Co,.Ltd.